Time;durP1;ratioP1;P1;durP2;ratioP2;P2;SDS_P1;SDS_P2;PMS_P1;PMS_P2;Temp;Humidity;BMP_temperature;BMP_pressure;BME280_temperature;BME280_humidity;BME280_pressure;Samples;Min_cycle;Max_cycle;Signal;HPM_P1;HPM_P2
2021/08/21 00:00:04;;;;;;;5.30;4.80;;;;;;;;;;10540431;28;20141;-83
2021/08/21 00:05:06;;;;;;;6.10;5.30;;;;;;;;;;10541830;28;20036;-83
2021/08/21 00:10:08;;;;;;;7.03;4.85;;;;;;;;;;10542641;28;20405;-83
2021/08/21 00:15:19;;;;;;;6.13;4.90;;;;;;;;;;10542118;28;20036;-84
2021/08/21 00:20:20;;;;;;;6.85;4.90;;;;;;;;;;10540090;28;20047;-83
2021/08/21 00:25:21;;;;;;;6.25;4.53;;;;;;;;;;10558064;28;20036;-84
2021/08/21 00:30:22;;;;;;;6.32;4.78;;;;;;;;;;10532295;28;20035;-83
2021/08/21 00:35:23;;;;;;;5.55;4.40;;;;;;;;;;10533205;28;20035;-83
2021/08/21 00:40:24;;;;;;;5.97;4.38;;;;;;;;;;10549056;28;20032;-82
2021/08/21 00:45:25;;;;;;;5.22;4.47;;;;;;;;;;10544594;28;20040;-82
2021/08/21 00:50:26;;;;;;;5.25;4.20;;;;;;;;;;10541540;28;20036;-83
2021/08/21 00:55:27;;;;;;;5.38;4.43;;;;;;;;;;10533129;28;20036;-83
2021/08/21 01:00:28;;;;;;;5.40;4.43;;;;;;;;;;10532278;28;20528;-83
2021/08/21 01:05:28;;;;;;;5.90;4.50;;;;;;;;;;10532296;28;20127;-83
2021/08/21 01:10:30;;;;;;;5.85;4.57;;;;;;;;;;10550697;28;20066;-83
2021/08/21 01:15:31;;;;;;;5.72;4.20;;;;;;;;;;10531641;28;20490;-83
2021/08/21 01:20:32;;;;;;;5.40;4.43;;;;;;;;;;10530716;28;20078;-83
2021/08/21 01:25:34;;;;;;;6.22;4.63;;;;;;;;;;10529836;28;20064;-83
2021/08/21 01:30:35;;;;;;;4.57;4.18;;;;;;;;;;10530417;28;20044;-83
2021/08/21 01:35:35;;;;;;;4.40;3.92;;;;;;;;;;10534118;28;20139;-83
2021/08/21 01:40:36;;;;;;;4.90;4.30;;;;;;;;;;10556685;28;20041;-84
2021/08/21 01:45:37;;;;;;;5.07;4.35;;;;;;;;;;10538471;28;20028;-83
2021/08/21 01:50:39;;;;;;;5.40;4.22;;;;;;;;;;10538593;28;20090;-83
2021/08/21 01:55:41;;;;;;;5.38;4.32;;;;;;;;;;10540488;28;20044;-83
2021/08/21 02:00:42;;;;;;;5.45;4.45;;;;;;;;;;10543433;28;20039;-83
2021/08/21 02:05:43;;;;;;;6.07;4.50;;;;;;;;;;10561676;28;20036;-84
2021/08/21 02:10:44;;;;;;;5.18;4.32;;;;;;;;;;10552816;28;20043;-83
2021/08/21 02:15:44;;;;;;;5.55;4.32;;;;;;;;;;10554299;28;20135;-84
2021/08/21 02:20:46;;;;;;;5.20;4.43;;;;;;;;;;10553964;28;20036;-83
2021/08/21 02:25:55;;;;;;;7.18;5.00;;;;;;;;;;10546730;28;20028;-83
2021/08/21 02:30:56;;;;;;;5.90;4.38;;;;;;;;;;10548799;28;20036;-83
2021/08/21 02:35:58;;;;;;;4.82;4.03;;;;;;;;;;10556120;28;20048;-84
2021/08/21 02:40:59;;;;;;;5.75;4.55;;;;;;;;;;10568485;28;20032;-84
2021/08/21 02:46:00;;;;;;;4.85;4.40;;;;;;;;;;10566959;28;20035;-84
2021/08/21 02:51:01;;;;;;;4.65;4.10;;;;;;;;;;10550192;28;20051;-84
2021/08/21 02:56:02;;;;;;;7.38;4.68;;;;;;;;;;10544129;28;20039;-83
2021/08/21 03:01:03;;;;;;;5.93;4.90;;;;;;;;;;10542593;28;20035;-83
2021/08/21 03:06:04;;;;;;;5.22;4.13;;;;;;;;;;10542829;28;20236;-83
2021/08/21 03:11:05;;;;;;;5.20;4.43;;;;;;;;;;10543601;28;20035;-83
2021/08/21 03:16:06;;;;;;;5.10;4.20;;;;;;;;;;10562466;28;20450;-84
2021/08/21 03:21:07;;;;;;;4.78;4.20;;;;;;;;;;10540708;28;20150;-83
2021/08/21 03:26:09;;;;;;;4.90;4.38;;;;;;;;;;10541539;28;20039;-83
2021/08/21 03:31:10;;;;;;;4.60;3.75;;;;;;;;;;10564670;28;20040;-83
2021/08/21 03:36:11;;;;;;;6.15;4.47;;;;;;;;;;10569261;28;20043;-83
2021/08/21 03:41:12;;;;;;;5.80;4.68;;;;;;;;;;10557753;28;20126;-83
2021/08/21 03:46:12;;;;;;;5.55;4.47;;;;;;;;;;10562206;28;20054;-83
2021/08/21 03:51:13;;;;;;;5.53;4.13;;;;;;;;;;10535995;28;20054;-83
2021/08/21 03:56:15;;;;;;;5.18;3.95;;;;;;;;;;10534788;28;20071;-83
2021/08/21 04:01:16;;;;;;;5.20;4.32;;;;;;;;;;10535117;28;20044;-83
2021/08/21 04:06:19;;;;;;;6.28;4.82;;;;;;;;;;10534338;28;20123;-83
2021/08/21 04:11:20;;;;;;;6.75;4.55;;;;;;;;;;10532829;28;20028;-83
2021/08/21 04:16:21;;;;;;;5.93;4.50;;;;;;;;;;10533898;28;20035;-83
2021/08/21 04:21:22;;;;;;;5.00;4.50;;;;;;;;;;10534582;28;20068;-83
2021/08/21 04:26:22;;;;;;;5.53;4.57;;;;;;;;;;10534245;28;20032;-83
2021/08/21 04:31:23;;;;;;;5.38;4.40;;;;;;;;;;10533235;28;20036;-83
2021/08/21 04:36:24;;;;;;;6.20;4.40;;;;;;;;;;10533066;28;20044;-83
2021/08/21 04:41:25;;;;;;;5.38;4.10;;;;;;;;;;10550715;28;20101;-83
2021/08/21 04:46:26;;;;;;;4.80;4.28;;;;;;;;;;10531615;28;20493;-83
2021/08/21 04:51:28;;;;;;;7.20;4.63;;;;;;;;;;10532249;28;20110;-83
2021/08/21 04:56:28;;;;;;;4.95;4.25;;;;;;;;;;10532025;28;20043;-83
2021/08/21 05:01:29;;;;;;;4.88;4.38;;;;;;;;;;10537367;28;20075;-83
2021/08/21 05:06:30;;;;;;;5.35;4.60;;;;;;;;;;10539146;28;20057;-84
2021/08/21 05:11:31;;;;;;;5.85;4.53;;;;;;;;;;10539364;28;20492;-83
2021/08/21 05:16:32;;;;;;;4.93;4.43;;;;;;;;;;10539227;28;20051;-84
2021/08/21 05:21:36;;;;;;;5.10;4.55;;;;;;;;;;10539334;28;20046;-84
2021/08/21 05:26:37;;;;;;;7.80;5.63;;;;;;;;;;10538746;28;20481;-83
2021/08/21 05:31:38;;;;;;;5.30;3.88;;;;;;;;;;10538722;28;20036;-84
2021/08/21 05:36:39;;;;;;;6.13;4.75;;;;;;;;;;10539393;28;20475;-84
2021/08/21 05:41:40;;;;;;;6.53;5.38;;;;;;;;;;10541985;28;20474;-84
2021/08/21 05:46:41;;;;;;;7.68;6.47;;;;;;;;;;10540177;28;20174;-84
2021/08/21 05:51:42;;;;;;;7.28;5.43;;;;;;;;;;10545162;28;20119;-84
2021/08/21 05:56:44;;;;;;;8.02;5.35;;;;;;;;;;10541360;28;20056;-83
2021/08/21 06:01:45;;;;;;;6.68;5.20;;;;;;;;;;10539014;28;20135;-84
2021/08/21 06:06:46;;;;;;;6.07;5.35;;;;;;;;;;10540689;28;20032;-84
2021/08/21 06:11:47;;;;;;;6.20;5.03;;;;;;;;;;10540429;28;20031;-84
2021/08/21 06:16:48;;;;;;;7.93;5.60;;;;;;;;;;10531576;28;20135;-83
2021/08/21 06:21:50;;;;;;;8.73;6.00;;;;;;;;;;10532290;28;20036;-83
2021/08/21 06:26:50;;;;;;;7.63;5.90;;;;;;;;;;10546277;28;20032;-82
2021/08/21 06:31:51;;;;;;;7.95;6.07;;;;;;;;;;10542914;28;20040;-83
2021/08/21 06:36:52;;;;;;;6.43;5.50;;;;;;;;;;10557045;28;20039;-83
2021/08/21 06:41:53;;;;;;;5.60;4.63;;;;;;;;;;10533218;28;20135;-83
2021/08/21 06:46:54;;;;;;;6.15;5.55;;;;;;;;;;10533097;28;20039;-83
2021/08/21 06:51:55;;;;;;;11.27;7.43;;;;;;;;;;10532928;28;20078;-84
2021/08/21 06:56:56;;;;;;;7.95;6.40;;;;;;;;;;10539670;28;20085;-84
2021/08/21 07:02:27;;;;;;;4.75;3.95;;;;;;;;;;10557633;28;20056;-87
2021/08/21 07:18:54;;;;;;;7.10;5.15;;;;;;;;;;10551729;28;20024;-87
2021/08/21 07:41:19;;;;;;;6.40;5.70;;;;;;;;;;10557268;28;20089;-88
2021/08/21 07:52:32;;;;;;;8.27;5.22;;;;;;;;;;10563726;28;20039;-87
2021/08/21 09:07:54;;;;;;;6.78;5.22;;;;;;;;;;10414330;28;20006;-86
2021/08/21 09:13:07;;;;;;;8.07;6.25;;;;;;;;;;10404868;28;20128;-86
2021/08/21 09:35:38;;;;;;;11.13;7.78;;;;;;;;;;10410127;28;20026;-87
2021/08/21 09:52:41;;;;;;;8.90;6.45;;;;;;;;;;10258091;29;20113;-90
2021/08/21 09:58:03;;;;;;;9.45;6.47;;;;;;;;;;10239908;28;20134;-87
2021/08/21 10:03:05;;;;;;;9.60;7.57;;;;;;;;;;10357887;28;20081;-85
2021/08/21 10:08:09;;;;;;;9.10;6.65;;;;;;;;;;10379683;28;20042;-85
2021/08/21 10:13:43;;;;;;;8.23;6.00;;;;;;;;;;10380762;28;20026;-89
2021/08/21 10:18:57;;;;;;;8.55;6.32;;;;;;;;;;10381402;28;20026;-87
2021/08/21 10:23:58;;;;;;;7.47;5.00;;;;;;;;;;10377805;28;20045;-86
2021/08/21 10:52:09;;;;;;;7.22;5.00;;;;;;;;;;10390693;28;20026;-87
2021/08/21 11:03:53;;;;;;;6.93;4.82;;;;;;;;;;10211134;29;20042;-91
2021/08/21 11:09:14;;;;;;;6.90;4.82;;;;;;;;;;10274465;28;20062;-88
2021/08/21 11:20:16;;;;;;;;;;;;;;;;;;;;;
2021/08/21 11:36:50;;;;;;;;;;;;;;;;;;;;;
2021/08/21 11:42:30;;;;;;;8.45;4.80;;;;;;;;;;10388778;28;20084;-87
2021/08/21 11:47:32;;;;;;;5.80;4.47;;;;;;;;;;10242764;28;20186;-86
2021/08/21 11:52:35;;;;;;;6.43;3.78;;;;;;;;;;10350572;28;20080;-85
2021/08/21 11:57:43;;;;;;;5.65;4.28;;;;;;;;;;10384082;28;20041;-86
2021/08/21 12:02:49;;;;;;;5.30;4.03;;;;;;;;;;10392179;28;20164;-81
2021/08/21 12:07:50;;;;;;;4.90;3.25;;;;;;;;;;10393350;28;20038;-83
2021/08/21 12:12:55;;;;;;;4.13;3.40;;;;;;;;;;10390637;28;20060;-81
2021/08/21 12:17:56;;;;;;;4.65;3.22;;;;;;;;;;10403673;28;20046;-82
2021/08/21 12:22:57;;;;;;;4.22;3.00;;;;;;;;;;10408573;28;20042;-81
2021/08/21 12:28:18;;;;;;;56.33;45.42;;;;;;;;;;10409356;28;20049;-82
2021/08/21 12:33:25;;;;;;;5.47;4.55;;;;;;;;;;10395839;28;20033;-81
2021/08/21 12:38:26;;;;;;;4.97;3.92;;;;;;;;;;10395951;28;20034;-81
2021/08/21 12:43:30;;;;;;;4.78;3.35;;;;;;;;;;10392826;28;20109;-81
2021/08/21 12:48:31;;;;;;;11.70;8.75;;;;;;;;;;10392940;28;20030;-82
2021/08/21 12:53:32;;;;;;;4.93;3.22;;;;;;;;;;10390316;28;20049;-82
2021/08/21 12:58:33;;;;;;;3.67;3.10;;;;;;;;;;10391108;28;20404;-81
2021/08/21 13:03:34;;;;;;;6.00;3.92;;;;;;;;;;10396031;28;20068;-82
2021/08/21 13:08:36;;;;;;;3.35;2.67;;;;;;;;;;10392180;28;20046;-83
2021/08/21 13:13:37;;;;;;;3.13;2.75;;;;;;;;;;10389356;28;20037;-83
2021/08/21 13:18:38;;;;;;;4.22;3.00;;;;;;;;;;10390943;28;20101;-83
2021/08/21 13:23:39;;;;;;;3.72;2.80;;;;;;;;;;10388209;28;20136;-83
2021/08/21 13:28:40;;;;;;;6.25;2.50;;;;;;;;;;10389283;28;20040;-82
2021/08/21 13:33:41;;;;;;;3.47;2.80;;;;;;;;;;10388833;28;20034;-82
2021/08/21 13:38:42;;;;;;;2.88;2.50;;;;;;;;;;10388038;28;20109;-82
2021/08/21 13:43:43;;;;;;;3.75;2.30;;;;;;;;;;10389094;28;20042;-83
2021/08/21 13:48:44;;;;;;;3.65;2.92;;;;;;;;;;10389060;28;20030;-82
2021/08/21 13:53:45;;;;;;;3.13;2.80;;;;;;;;;;10388218;28;20119;-82
2021/08/21 13:58:46;;;;;;;3.30;2.67;;;;;;;;;;10391980;28;20443;-82
2021/08/21 14:03:47;;;;;;;3.88;2.72;;;;;;;;;;10388854;28;20038;-82
2021/08/21 14:08:48;;;;;;;2.97;2.38;;;;;;;;;;10387413;28;20030;-82
2021/08/21 14:13:49;;;;;;;3.00;2.28;;;;;;;;;;10385435;28;20044;-82
2021/08/21 14:18:49;;;;;;;4.30;2.88;;;;;;;;;;10386765;28;20594;-83
2021/08/21 14:23:51;;;;;;;5.10;3.53;;;;;;;;;;10389340;28;20058;-82
2021/08/21 14:28:52;;;;;;;3.42;2.78;;;;;;;;;;10388774;28;20037;-82
2021/08/21 14:33:55;;;;;;;3.85;3.10;;;;;;;;;;10391416;28;20048;-83
2021/08/21 14:38:56;;;;;;;6.75;3.40;;;;;;;;;;10390227;28;20065;-83
2021/08/21 14:43:57;;;;;;;4.80;3.25;;;;;;;;;;10392355;28;20045;-83
2021/08/21 14:48:58;;;;;;;4.00;3.03;;;;;;;;;;10388913;28;20388;-83
2021/08/21 14:53:59;;;;;;;3.83;2.40;;;;;;;;;;10388063;28;20038;-83
2021/08/21 14:59:00;;;;;;;4.85;2.75;;;;;;;;;;10388750;28;20492;-83
2021/08/21 15:04:02;;;;;;;3.58;2.75;;;;;;;;;;10388787;28;20038;-83
2021/08/21 15:09:03;;;;;;;4.97;2.47;;;;;;;;;;10386662;28;20053;-83
2021/08/21 15:14:05;;;;;;;2.83;2.53;;;;;;;;;;10395908;28;20038;-83
2021/08/21 15:19:07;;;;;;;4.45;3.80;;;;;;;;;;10401862;28;20029;-83
2021/08/21 15:24:09;;;;;;;3.08;2.70;;;;;;;;;;10401956;28;20064;-83
2021/08/21 15:29:10;;;;;;;3.17;2.40;;;;;;;;;;10395419;28;20046;-83
2021/08/21 15:34:12;;;;;;;2.80;2.50;;;;;;;;;;10395788;28;20034;-83
2021/08/21 15:39:12;;;;;;;3.13;2.25;;;;;;;;;;10396257;28;20373;-83
2021/08/21 15:44:13;;;;;;;3.00;2.70;;;;;;;;;;10392455;28;20041;-83
2021/08/21 15:49:14;;;;;;;5.47;3.17;;;;;;;;;;10392317;28;20057;-83
2021/08/21 15:54:15;;;;;;;4.38;3.60;;;;;;;;;;10392970;28;20040;-83
2021/08/21 15:59:16;;;;;;;4.25;3.30;;;;;;;;;;10395083;28;20117;-83
2021/08/21 16:04:17;;;;;;;5.97;3.15;;;;;;;;;;10392493;28;20042;-83
2021/08/21 16:09:18;;;;;;;5.20;3.03;;;;;;;;;;10397739;28;20087;-83
2021/08/21 16:14:19;;;;;;;5.00;3.15;;;;;;;;;;10394604;28;20053;-82
2021/08/21 16:19:20;;;;;;;3.20;2.90;;;;;;;;;;10392524;28;20034;-83
2021/08/21 16:24:21;;;;;;;3.72;3.13;;;;;;;;;;10390549;28;20038;-83
2021/08/21 16:29:22;;;;;;;6.10;5.43;;;;;;;;;;10391085;28;20102;-83
2021/08/21 16:34:23;;;;;;;4.40;3.42;;;;;;;;;;10390341;28;20037;-83
2021/08/21 16:39:24;;;;;;;5.68;2.90;;;;;;;;;;10390437;28;20080;-83
2021/08/21 16:44:25;;;;;;;3.60;2.90;;;;;;;;;;10391126;28;20030;-83
2021/08/21 16:49:26;;;;;;;4.38;3.10;;;;;;;;;;10391267;28;20033;-82
2021/08/21 16:54:27;;;;;;;4.95;3.00;;;;;;;;;;10390078;28;20041;-82
2021/08/21 16:59:27;;;;;;;3.17;2.78;;;;;;;;;;10390869;28;20046;-82
2021/08/21 17:04:28;;;;;;;3.80;3.40;;;;;;;;;;10388882;28;20038;-82
2021/08/21 17:09:30;;;;;;;4.05;3.35;;;;;;;;;;10391451;28;20037;-82
2021/08/21 17:14:31;;;;;;;3.67;3.30;;;;;;;;;;10388370;28;20026;-82
2021/08/21 17:19:32;;;;;;;4.70;4.20;;;;;;;;;;10387323;28;20044;-82
2021/08/21 17:24:34;;;;;;;3.70;3.15;;;;;;;;;;10389651;28;20026;-82
2021/08/21 17:29:34;;;;;;;5.65;4.63;;;;;;;;;;10389504;28;20034;-82
2021/08/21 17:34:36;;;;;;;5.32;4.80;;;;;;;;;;10389565;28;20140;-83
2021/08/21 17:39:37;;;;;;;6.45;5.53;;;;;;;;;;10391235;28;20010;-82
2021/08/21 17:44:38;;;;;;;4.85;3.95;;;;;;;;;;10387559;28;20044;-82
2021/08/21 17:49:40;;;;;;;5.10;4.20;;;;;;;;;;10388772;28;20133;-83
2021/08/21 17:54:41;;;;;;;4.28;3.78;;;;;;;;;;10387226;28;20041;-82
2021/08/21 17:59:42;;;;;;;4.72;4.03;;;;;;;;;;10387658;28;20120;-82
2021/08/21 18:04:43;;;;;;;5.40;4.35;;;;;;;;;;10389330;28;20026;-82
2021/08/21 18:09:44;;;;;;;5.50;4.43;;;;;;;;;;10401644;28;20021;-82
2021/08/21 18:14:45;;;;;;;6.65;5.32;;;;;;;;;;10402127;28;20564;-82
2021/08/21 18:19:45;;;;;;;8.43;5.00;;;;;;;;;;10397849;28;20049;-82
2021/08/21 18:24:46;;;;;;;6.07;4.00;;;;;;;;;;10392061;28;20129;-83
2021/08/21 18:29:47;;;;;;;6.35;4.60;;;;;;;;;;10390919;28;20045;-82
2021/08/21 18:34:48;;;;;;;6.70;5.40;;;;;;;;;;10391141;28;20049;-83
2021/08/21 18:39:49;;;;;;;4.63;4.10;;;;;;;;;;10389665;28;20041;-82
2021/08/21 18:44:50;;;;;;;8.52;6.22;;;;;;;;;;10387011;28;20133;-81
2021/08/21 18:49:51;;;;;;;5.78;4.88;;;;;;;;;;10397436;28;20034;-83
2021/08/21 18:54:52;;;;;;;8.98;5.05;;;;;;;;;;10398668;28;20041;-82
2021/08/21 18:59:53;;;;;;;6.38;4.10;;;;;;;;;;10395226;28;20052;-82
2021/08/21 19:04:54;;;;;;;6.15;4.47;;;;;;;;;;10395790;28;20034;-82
2021/08/21 19:09:55;;;;;;;5.07;4.03;;;;;;;;;;10394995;28;20034;-82
2021/08/21 19:14:56;;;;;;;6.00;4.65;;;;;;;;;;10396753;28;20041;-82
2021/08/21 19:19:57;;;;;;;6.00;5.13;;;;;;;;;;10394158;28;20038;-82
2021/08/21 19:24:58;;;;;;;5.38;4.88;;;;;;;;;;10393762;28;20034;-82
2021/08/21 19:29:59;;;;;;;7.40;5.13;;;;;;;;;;10393628;28;20076;-81
2021/08/21 19:35:00;;;;;;;8.23;6.35;;;;;;;;;;10393944;28;20519;-82
2021/08/21 19:40:04;;;;;;;5.78;4.57;;;;;;;;;;10393628;28;20042;-83
2021/08/21 19:45:06;;;;;;;5.85;4.38;;;;;;;;;;10394633;28;20037;-82
2021/08/21 19:50:07;;;;;;;5.70;5.15;;;;;;;;;;10392691;28;20040;-82
2021/08/21 19:55:09;;;;;;;6.15;5.47;;;;;;;;;;10394258;28;20060;-82
2021/08/21 20:00:10;;;;;;;7.95;6.95;;;;;;;;;;10397037;28;20044;-82
2021/08/21 20:05:12;;;;;;;7.75;6.63;;;;;;;;;;10394120;28;20037;-83
2021/08/21 20:10:13;;;;;;;6.82;5.32;;;;;;;;;;10394032;28;20101;-83
2021/08/21 20:15:17;;;;;;;6.78;6.07;;;;;;;;;;10397449;28;20434;-83
2021/08/21 20:20:18;;;;;;;6.78;5.32;;;;;;;;;;10393060;28;20035;-83
2021/08/21 20:25:19;;;;;;;5.53;4.82;;;;;;;;;;10394063;28;20040;-83
2021/08/21 20:30:20;;;;;;;8.52;6.15;;;;;;;;;;10393050;28;20034;-83
2021/08/21 20:35:21;;;;;;;5.47;4.93;;;;;;;;;;10394287;28;20535;-83
2021/08/21 20:40:22;;;;;;;5.68;4.88;;;;;;;;;;10399063;28;20045;-83
2021/08/21 20:45:23;;;;;;;6.93;5.15;;;;;;;;;;10404143;28;20040;-83
2021/08/21 20:50:24;;;;;;;5.90;5.25;;;;;;;;;;10397752;28;20038;-82
2021/08/21 20:55:25;;;;;;;5.88;4.53;;;;;;;;;;10390677;28;20038;-82
2021/08/21 21:00:26;;;;;;;4.63;4.18;;;;;;;;;;10399611;28;20038;-81
2021/08/21 21:05:27;;;;;;;5.18;4.68;;;;;;;;;;10402230;28;20128;-82
2021/08/21 21:10:28;;;;;;;5.00;4.50;;;;;;;;;;10401764;28;20543;-82
2021/08/21 21:15:29;;;;;;;5.55;4.85;;;;;;;;;;10390503;28;20042;-81
2021/08/21 21:20:30;;;;;;;7.40;6.10;;;;;;;;;;10391302;28;20068;-82
2021/08/21 21:25:33;;;;;;;9.23;6.15;;;;;;;;;;10393523;28;20025;-82
2021/08/21 21:30:33;;;;;;;4.95;4.32;;;;;;;;;;10394728;28;20034;-82
2021/08/21 21:35:35;;;;;;;5.25;4.03;;;;;;;;;;10392385;28;20092;-82
2021/08/21 21:40:37;;;;;;;5.57;5.07;;;;;;;;;;10391372;28;20404;-83
2021/08/21 21:45:38;;;;;;;5.82;4.70;;;;;;;;;;10390880;28;20034;-82
2021/08/21 21:50:39;;;;;;;4.82;4.32;;;;;;;;;;10389352;28;20041;-82
2021/08/21 21:55:41;;;;;;;7.45;6.15;;;;;;;;;;10388273;28;20407;-82
2021/08/21 22:00:43;;;;;;;6.72;6.03;;;;;;;;;;10387930;28;20503;-82
2021/08/21 22:05:45;;;;;;;7.47;5.75;;;;;;;;;;10386275;28;20045;-82
2021/08/21 22:10:46;;;;;;;7.55;6.15;;;;;;;;;;10385761;28;20037;-83
2021/08/21 22:15:47;;;;;;;5.40;4.78;;;;;;;;;;10388496;28;20034;-82
2021/08/21 22:20:49;;;;;;;8.52;6.55;;;;;;;;;;10388599;28;20030;-82
2021/08/21 22:25:50;;;;;;;7.70;5.53;;;;;;;;;;10395545;28;20026;-82
2021/08/21 22:30:51;;;;;;;5.57;4.75;;;;;;;;;;10395889;28;20045;-82
2021/08/21 22:35:53;;;;;;;6.00;4.35;;;;;;;;;;10394750;28;20041;-81
2021/08/21 22:40:58;;;;;;;8.18;5.75;;;;;;;;;;10393991;28;20033;-82
2021/08/21 22:45:59;;;;;;;4.50;4.10;;;;;;;;;;10394813;28;20041;-82
2021/08/21 22:51:00;;;;;;;9.25;7.93;;;;;;;;;;10394905;28;20033;-82
2021/08/21 22:56:01;;;;;;;7.30;5.80;;;;;;;;;;10394920;28;20030;-82
2021/08/21 23:01:02;;;;;;;4.30;3.60;;;;;;;;;;10394213;28;20042;-81
2021/08/21 23:06:03;;;;;;;3.65;3.22;;;;;;;;;;10393658;28;20057;-81
2021/08/21 23:11:05;;;;;;;5.97;4.80;;;;;;;;;;10393604;28;20065;-82
2021/08/21 23:16:06;;;;;;;5.25;4.75;;;;;;;;;;10394495;28;20041;-82
2021/08/21 23:21:07;;;;;;;5.93;4.13;;;;;;;;;;10393595;28;20042;-81
2021/08/21 23:26:08;;;;;;;6.55;5.15;;;;;;;;;;10395296;28;20037;-81
2021/08/21 23:31:09;;;;;;;7.60;5.82;;;;;;;;;;10394116;28;20045;-81
2021/08/21 23:36:11;;;;;;;7.15;6.45;;;;;;;;;;10392608;28;20395;-81
2021/08/21 23:41:11;;;;;;;7.78;5.20;;;;;;;;;;10396104;28;20034;-82
2021/08/21 23:46:13;;;;;;;7.13;5.30;;;;;;;;;;10400993;28;20034;-82
2021/08/21 23:51:23;;;;;;;5.45;4.88;;;;;;;;;;10394391;28;20091;-81
2021/08/21 23:56:24;;;;;;;7.00;6.28;;;;;;;;;;10408238;28;20052;-82
